Terminal Aerodrome Forecast
Issued by NWS

Home | Current Version | Previous Version | Text Only | Print | Product List | Glossary On
Versions: 1 2 3 4 5 6 7 8 9 10 11 12 13 14 15 16 17 18
000
FTUS42 KJAX 052214 AAA
TAFVQQ
TAF AMD
KVQQ 052214Z 0522/0618 04009KT P6SM SCT040 SCT130 BKN200
     FM060200 03005KT P6SM FEW020 SCT035 OVC200
     FM061000 03003KT P6SM VCSH SCT020 BKN035 OVC200
     FM061400 02013G23KT P6SM VCSH SCT020 BKN030 BKN100=

USA.gov is the U.S. government's official web portal to all federal, state and local government web resources and services.